Nearby METAR Reports

 

KHCR - Heber/Russ Mcdon, Utah, USA
Distance from station: SSW 18mi, 29km
Updated: Tue, 28-Jan-2020 1:55pm MST
Mostly cloudy
Mostly cloudy
 Wind from calm
Wind: Calm
Temperature: 36°F , 2°C
Dew Point: 25°F , -4°C
Humidity: 65%
Barometer: 30.11 inHg , 1019.6 hPa
Clouds: Mostly cloudy
Visibility: 10 miles , 16 km
Cloud details: Mostly cloudy 6000 ft
2020/01/28 20:55 KHCR 282055Z AUTO 00000KT 10SM BKN060 02/M04 A3011 RMK AO2
KSLC - Salt Lake City, Utah, USA
Distance from station: W 35mi, 57km
Updated: Tue, 28-Jan-2020 1:54pm MST
Overcast
Overcast
 Wind from SSW
Wind: SSW 12 mph , 19 km/h
Temperature: 45°F , 7°C
Wind Chill: 39°F , 4°C
Dew Point: 27°F , -3°C
Humidity: 49%
Barometer: 30.13 inHg , 1020.3 hPa
Clouds: Overcast
Visibility: 10 miles , 16 km
Cloud details: Few Clouds 5500 ft
Mostly cloudy 7000 ft
Overcast 11000 ft
2020/01/28 20:54 KSLC 282054Z 20010KT 10SM FEW055 BKN070 OVC110 07/M03 A3013 RMK AO2 SLP201 VIRGA SH DSNT NE AND SE AND SW T00721033 58026
 
KU42 - Salt Lake Muni, Utah, USA
Distance from station: WSW 37mi, 59km
Updated: Tue, 28-Jan-2020 1:55pm MST
Overcast
Overcast
 Wind from SSE
Wind: SSE 14 mph , 22 km/h
Temperature: 43°F , 6°C
Wind Chill: 36°F , 2°C
Dew Point: 32°F , 0°C
Humidity: 66%
Barometer: 30.13 inHg , 1020.3 hPa
Clouds: Overcast
Visibility: 10 miles , 16 km
Cloud details: Mostly cloudy 6000 ft
Overcast 7000 ft
2020/01/28 20:55 KU42 282055Z AUTO 16012KT 10SM BKN060 OVC070 06/00 A3013 RMK AO1 T00570000
KEVW - Evanston, Wyoming, USA
Distance from station: NNE 40mi, 64km
Updated: Tue, 28-Jan-2020 1:53pm MST
Overcast
Overcast
 Wind from SW
Wind: SW 21 mph , 33 km/h
Temperature: 32°F , 0°C
Wind Chill: 20°F , -7°C
Dew Point: 21°F , -6°C
Humidity: 64%
Barometer: 30.08 inHg , 1018.6 hPa
Clouds: Overcast
Visibility: 10 miles , 16 km
Cloud details: Mostly cloudy 3300 ft
Overcast 9500 ft
2020/01/28 20:53 KEVW 282053Z AUTO 23018KT 10SM BKN033 OVC095 00/M06 A3008 RMK AO2 SLP203 T00001056 56026
 
KPVU - Provo Muni, Utah, USA
Distance from station: SSW 41mi, 67km
Updated: Tue, 28-Jan-2020 1:56pm MST
Overcast
Overcast
 Wind from SE
Wind: SE 5 mph , 7 km/h
Temperature: 43°F , 6°C
Wind Chill: 40°F , 4°C
Dew Point: 27°F , -3°C
Humidity: 53%
Barometer: 30.17 inHg , 1021.7 hPa
Clouds: Overcast
Visibility: 10 miles , 16 km
Cloud details: Few Clouds 6000 ft
Mostly cloudy 7000 ft
Overcast 15000 ft
2020/01/28 20:56 KPVU 282056Z 14004KT 10SM FEW060 BKN070 OVC150 06/M03 A3017 RMK AO2 SLP229 T00611033 58028
KHIF - Hill Afb/Ogden, Utah, USA
Distance from station: NW 45mi, 72km
Updated: Tue, 28-Jan-2020 2:06pm MST
Light rain, Overcast
Light rain, Overcast
 Wind from S
Wind: S 6 mph , 9 km/h
Temperature: 41°F , 5°C
Wind Chill: 37°F , 3°C
Dew Point: 28°F , -2°C
Humidity: 61%
Barometer: 30.13 inHg , 1020.3 hPa
Summary: Light rain
Clouds: Overcast
Visibility: 10 miles , 16 km
Cloud details: Few Clouds 1900 ft
Partly cloudy 2500 ft
Partly cloudy 2900 ft
Mostly cloudy 4100 ft
Overcast 5000 ft
2020/01/28 21:06 KHIF 282106Z 17005KT 10SM -RA FEW019 SCT025 SCT029 BKN041 OVC050 05/M02 A3013 RMK AO2A RAB06 SLP204
 
KOGD - Ogden, Utah, USA
Distance from station: NW 50mi, 81km
Updated: Tue, 28-Jan-2020 1:53pm MST
Overcast
Overcast
 Wind from varies
Wind: varies 5 mph , 7 km/h
Temperature: 45°F , 7°C
Wind Chill: 42°F , 6°C
Dew Point: 27°F , -3°C
Humidity: 49%
Barometer: 30.13 inHg , 1020.3 hPa
Clouds: Overcast
Visibility: 10 miles , 16 km
Cloud details: Overcast 5000 ft
2020/01/28 20:53 KOGD 282053Z VRB04KT 10SM OVC050 07/M03 A3013 RMK AO2 SLP198 T00671033 58024